Antonios — SY8410 — position and weather

sailwx.info

Track history (hours):
 
Tides and Currents Weather Stations Pressure Air Temp Water Temp Dewpoint Dewpoint Depression Visibility Wind Speed Wind Dir Waves Ship Positions

Antonios

Last reported at 2015-Mar-14 18:33 UTC. Time now 2015-Mar-30 04:33 UTC.
Position N 37°01' E 026°10'.
Warning: this ship's position is 15 days out of date.

Length 57 m; draft 4.1 m.

Type: Tanker. MMSI: 239191300.

Date/timePositionNaut miles runAvg speedWind from/ knotsBaromVisibWave heightAir tempDewpointWater temp
2015-Mar-14 18:33N 37°01' E 026°10'20 9.0
2015-Mar-14 16:23N 37°12' E 025°49'8 8.9
2015-Mar-14 15:30N 37°12' E 025°39'9 9.5
2015-Mar-14 14:33N 37°14' E 025°28'10 9.8
2015-Mar-14 13:33N 37°17' E 025°17'1210.0
2015-Mar-14 12:24N 37°20' E 025°02'910.5
2015-Mar-14 11:33N 37°21' E 024°52'51 9.6
2015-Mar-14 06:13N 37°39' E 023°51'6 9.7
2015-Mar-14 05:33N 37°40' E 023°43'10 9.9
2015-Mar-14 04:33N 37°48' E 023°37'10 9.9
2015-Mar-14 03:33N 37°51' E 023°25'11 9.9
2015-Mar-14 02:26N 37°53' E 023°11'5 1.6
2015-Mar-13 23:25N 37°55' E 023°05'0 0.0
2015-Mar-13 22:25N 37°55' E 023°05'0 0.0
2015-Mar-13 21:17N 37°55' E 023°05'0 0.0
2015-Mar-13 19:33N 37°55' E 023°05'0 0.0
2015-Mar-13 18:31N 37°55' E 023°05'0 0.0
2015-Mar-13 17:33N 37°55' E 023°05'0 0.0
2015-Mar-13 16:31N 37°55' E 023°05'0 0.0
2015-Mar-13 15:31N 37°55' E 023°05'0 0.5
2015-Mar-13 14:33N 37°55' E 023°06'0 0.4
2015-Mar-13 13:26N 37°55' E 023°06'0 0.0
2015-Mar-13 11:31N 37°55' E 023°06'0 0.1
2015-Mar-13 10:32N 37°55' E 023°06'0 0.0
2015-Mar-13 09:33N 37°55' E 023°06'0 0.0
2015-Mar-13 08:33N 37°55' E 023°06'0 0.0
2015-Mar-13 07:31N 37°55' E 023°06'0 0.0
2015-Mar-13 04:13N 37°55' E 023°06'0 0.0
2015-Mar-13 02:26N 37°55' E 023°06'0 0.0
2015-Mar-13 01:27N 37°55' E 023°06'0 0.0
2015-Mar-12 21:18N 37°55' E 023°06'0 0.0
2015-Mar-12 20:06N 37°55' E 023°06'0 0.0
2015-Mar-12 19:25N 37°55' E 023°06'0 0.0
2015-Mar-12 18:28N 37°55' E 023°06'0 0.0
2015-Mar-12 17:33N 37°55' E 023°06'0 0.0
2015-Mar-12 15:31N 37°55' E 023°06'12 9.2
2015-Mar-12 14:11N 37°52' E 023°22'710.6
2015-Mar-12 13:33N 37°51' E 023°30'9 9.3
2015-Mar-12 12:33N 37°48' E 023°41'10 9.9
2015-Mar-12 11:33N 37°39' E 023°48'1010.0
2015-Mar-12 10:32N 37°36' E 024°00'40 9.9
2015-Mar-12 06:33N 37°23' E 024°47'1010.2
2015-Mar-12 05:33N 37°20' E 024°59'1010.1
2015-Mar-12 04:33N 37°18' E 025°12'1010.1
2015-Mar-12 03:33N 37°16' E 025°24'1210.1
2015-Mar-12 02:22N 37°12' E 025°38'  
Track history (hours):
 
Tides and Currents Weather Stations Pressure Air Temp Water Temp Dewpoint Dewpoint Depression Visibility Wind Speed Wind Dir Waves Ship Positions

Antonios

Last reported at 2015-Mar-14 18:33 UTC. Time now 2015-Mar-30 04:33 UTC.
Position N 37°01' E 026°10'.
Warning: this ship's position is 15 days out of date.

Length 57 m; draft 4.1 m.

Type: Tanker. MMSI: 239191300.

Date/timePositionNaut miles runAvg speedWind from/ knotsBaromVisibWave heightAir tempDewpointWater temp
2015-Mar-14 18:33N 37°01' E 026°10'20 9.0
2015-Mar-14 16:23N 37°12' E 025°49'8 8.9
2015-Mar-14 15:30N 37°12' E 025°39'9 9.5
2015-Mar-14 14:33N 37°14' E 025°28'10 9.8
2015-Mar-14 13:33N 37°17' E 025°17'1210.0
2015-Mar-14 12:24N 37°20' E 025°02'910.5
2015-Mar-14 11:33N 37°21' E 024°52'51 9.6
2015-Mar-14 06:13N 37°39' E 023°51'6 9.7
2015-Mar-14 05:33N 37°40' E 023°43'10 9.9
2015-Mar-14 04:33N 37°48' E 023°37'10 9.9
2015-Mar-14 03:33N 37°51' E 023°25'11 9.9
2015-Mar-14 02:26N 37°53' E 023°11'5 1.6
2015-Mar-13 23:25N 37°55' E 023°05'0 0.0
2015-Mar-13 22:25N 37°55' E 023°05'0 0.0
2015-Mar-13 21:17N 37°55' E 023°05'0 0.0
2015-Mar-13 19:33N 37°55' E 023°05'0 0.0
2015-Mar-13 18:31N 37°55' E 023°05'0 0.0
2015-Mar-13 17:33N 37°55' E 023°05'0 0.0
2015-Mar-13 16:31N 37°55' E 023°05'0 0.0
2015-Mar-13 15:31N 37°55' E 023°05'0 0.5
2015-Mar-13 14:33N 37°55' E 023°06'0 0.4
2015-Mar-13 13:26N 37°55' E 023°06'0 0.0
2015-Mar-13 11:31N 37°55' E 023°06'0 0.1
2015-Mar-13 10:32N 37°55' E 023°06'0 0.0
2015-Mar-13 09:33N 37°55' E 023°06'0 0.0
2015-Mar-13 08:33N 37°55' E 023°06'0 0.0
2015-Mar-13 07:31N 37°55' E 023°06'0 0.0
2015-Mar-13 04:13N 37°55' E 023°06'0 0.0
2015-Mar-13 02:26N 37°55' E 023°06'0 0.0
2015-Mar-13 01:27N 37°55' E 023°06'0 0.0
2015-Mar-12 21:18N 37°55' E 023°06'0 0.0
2015-Mar-12 20:06N 37°55' E 023°06'0 0.0
2015-Mar-12 19:25N 37°55' E 023°06'0 0.0
2015-Mar-12 18:28N 37°55' E 023°06'0 0.0
2015-Mar-12 17:33N 37°55' E 023°06'0 0.0
2015-Mar-12 15:31N 37°55' E 023°06'12 9.2
2015-Mar-12 14:11N 37°52' E 023°22'710.6
2015-Mar-12 13:33N 37°51' E 023°30'9 9.3
2015-Mar-12 12:33N 37°48' E 023°41'10 9.9
2015-Mar-12 11:33N 37°39' E 023°48'1010.0
2015-Mar-12 10:32N 37°36' E 024°00'40 9.9
2015-Mar-12 06:33N 37°23' E 024°47'1010.2
2015-Mar-12 05:33N 37°20' E 024°59'1010.1
2015-Mar-12 04:33N 37°18' E 025°12'1010.1
2015-Mar-12 03:33N 37°16' E 025°24'1210.1
2015-Mar-12 02:22N 37°12' E 025°38'  

Dump ship's entire track history